createdAt,value
2019-02-09T00:00:05.835Z,62.53
2019-02-09T00:01:06.802Z,63.29
2019-02-09T00:02:07.684Z,62.72
2019-02-09T00:03:08.095Z,62.72
2019-02-09T00:04:09.229Z,62.53
2019-02-09T00:05:10.677Z,62.72
2019-02-09T00:06:11.093Z,63.2
2019-02-09T00:07:11.780Z,63.48
2019-02-09T00:08:12.466Z,64.05
2019-02-09T00:09:13.428Z,64.62
2019-02-09T00:10:13.836Z,64.81
2019-02-09T00:11:14.963Z,64.9
2019-02-09T00:12:15.625Z,64.71
2019-02-09T00:13:16.604Z,64.9
2019-02-09T00:14:17.018Z,64.43
2019-02-09T00:15:17.725Z,65.28
2019-02-09T00:16:18.145Z,65.37
2019-02-09T00:17:19.558Z,65.37
2019-02-09T00:18:20.243Z,65.47
2019-02-09T00:19:21.377Z,65.09
2019-02-09T00:20:21.784Z,64.71
2019-02-09T00:21:22.471Z,64.05
2019-02-09T00:22:23.140Z,64.33
2019-02-09T00:23:23.549Z,63.57
2019-02-09T00:24:24.678Z,64.24
2019-02-09T00:25:25.818Z,63.48
2019-02-09T00:26:26.509Z,63.01
2019-02-09T00:27:27.037Z,63.1
2019-02-09T00:28:27.723Z,63.67
2019-02-09T00:29:28.411Z,64.52
2019-02-09T00:30:29.659Z,65
2019-02-09T00:31:29.655Z,65.75
2019-02-09T00:32:31.332Z,65.44
2019-02-09T00:33:31.019Z,65.63
2019-02-09T00:34:31.705Z,65.34
2019-02-09T00:35:33.115Z,65.63
2019-02-09T00:36:33.246Z,64.68
2019-02-09T00:37:33.935Z,64.11
2019-02-09T00:38:35.175Z,63.54
2019-02-09T00:39:35.588Z,62.43
2019-02-09T00:40:35.556Z,61.77
2019-02-09T00:41:36.517Z,61.87
2019-02-09T00:42:37.338Z,61.39
2019-02-09T00:43:37.797Z,61.01
2019-02-09T00:44:38.206Z,61.96
2019-02-09T00:45:39.340Z,61.39
2019-02-09T00:46:40.032Z,61.68
2019-02-09T00:47:40.438Z,60.63
2019-02-09T00:48:41.142Z,61.01
2019-02-09T00:49:41.276Z,61.01
2019-02-09T00:50:42.273Z,60.25
2019-02-09T00:51:42.964Z,60.63
2019-02-09T00:52:43.805Z,60.35
2019-02-09T00:53:44.768Z,59.88
2019-02-09T00:54:45.503Z,60.16
2019-02-09T00:55:45.909Z,61.01
2019-02-09T00:56:47.595Z,61.11
2019-02-09T00:57:47.281Z,61.01
2019-02-09T00:58:48.245Z,61.58
2019-02-09T00:59:55.268Z,61.68
2019-02-09T01:00:01.695Z,61.77
2019-02-09T01:01:02.374Z,61.77
2019-02-09T01:02:03.616Z,62.43
2019-02-09T01:03:03.581Z,62.53
2019-02-09T01:04:04.984Z,62.62
2019-02-09T01:05:05.673Z,62.43
2019-02-09T01:06:05.807Z,62.53
2019-02-09T01:07:06.216Z,62.82
2019-02-09T01:08:06.633Z,63.67
2019-02-09T01:09:07.328Z,63.2
2019-02-09T01:10:07.735Z,63.2
2019-02-09T01:11:08.391Z,62.69
2019-02-09T01:12:09.092Z,62.62
2019-02-09T01:13:09.814Z,62.43
2019-02-09T01:14:10.224Z,63.67
2019-02-09T01:15:11.470Z,63.29
2019-02-09T01:16:11.884Z,63.48
2019-02-09T01:17:12.291Z,63.45
2019-02-09T01:18:12.811Z,64.14
2019-02-09T01:19:13.774Z,64.49
2019-02-09T01:20:14.777Z,64.62
2019-02-09T01:21:15.620Z,64.11
2019-02-09T01:22:16.596Z,63.54
2019-02-09T01:23:17.562Z,62.62
2019-02-09T01:24:18.691Z,62.72
2019-02-09T01:25:19.663Z,62.82
2019-02-09T01:26:19.645Z,62.91
2019-02-09T01:27:20.058Z,62.91
2019-02-09T01:28:21.023Z,63.1
2019-02-09T01:29:22.005Z,63.01
2019-02-09T01:30:22.245Z,63.01
2019-02-09T01:31:23.343Z,64.24
2019-02-09T01:32:24.031Z,63.76
2019-02-09T01:33:24.996Z,64.62
2019-02-09T01:34:25.142Z,64.68
2019-02-09T01:35:25.841Z,65.63
2019-02-09T01:36:26.528Z,65.44
2019-02-09T01:37:26.937Z,65.63
2019-02-09T01:38:28.069Z,65.44
2019-02-09T01:39:29.204Z,65.16
2019-02-09T01:40:29.920Z,65.63
2019-02-09T01:41:31.019Z,65.25
2019-02-09T01:42:31.714Z,66.48
2019-02-09T01:43:32.685Z,66.58
2019-02-09T01:44:32.818Z,67.33
2019-02-09T01:45:33.506Z,67.9
2019-02-09T01:46:33.915Z,68.66
2019-02-09T01:47:34.603Z,69.42
2019-02-09T01:48:35.566Z,69.33
2019-02-09T01:49:35.712Z,69.61
2019-02-09T01:50:37.674Z,69.61
2019-02-09T01:51:37.793Z,69.61
2019-02-09T01:52:38.928Z,69.61
2019-02-09T01:53:39.891Z,69.61
2019-02-09T01:54:40.585Z,69.71
2019-02-09T01:55:41.384Z,69.42
2019-02-09T01:56:41.356Z,69.71
2019-02-09T01:57:42.043Z,70.28
2019-02-09T01:58:42.734Z,69.61
2019-02-09T01:59:42.972Z,69.61
2019-02-09T02:00:43.946Z,70.84
2019-02-09T02:01:44.894Z,69.99
2019-02-09T02:02:45.306Z,69.71
2019-02-09T02:03:46.273Z,70.18
2019-02-09T02:04:46.406Z,70.47
2019-02-09T02:05:47.095Z,70.18
2019-02-09T02:06:47.510Z,70.75
2019-02-09T02:07:47.974Z,71.41
2019-02-09T02:08:48.384Z,72.17
2019-02-09T02:09:49.347Z,72.27
2019-02-09T02:10:49.755Z,71.03
2019-02-09T02:11:50.310Z,71.19
2019-02-09T02:12:51.030Z,71.38
2019-02-09T02:13:51.441Z,71.66
2019-02-09T02:14:52.681Z,71.47
2019-02-09T02:15:52.919Z,71.03
2019-02-09T02:16:53.324Z,70.9
2019-02-09T02:17:54.567Z,71.38
2019-02-09T02:18:55.253Z,70.9
2019-02-09T02:19:55.694Z,71
2019-02-09T02:20:56.381Z,70.94
2019-02-09T02:21:56.670Z,71.47
2019-02-09T02:22:58.141Z,72.04
2019-02-09T02:23:58.269Z,71.47
2019-02-09T02:24:58.676Z,72.23
2019-02-09T02:25:59.703Z,71.95
2019-02-09T02:27:00.391Z,72.14
2019-02-09T02:28:01.093Z,72.04
2019-02-09T02:29:01.779Z,72.23
2019-02-09T02:30:02.335Z,73.18
2019-02-09T02:31:03.078Z,73.27
2019-02-09T02:32:04.004Z,74.22
2019-02-09T02:33:05.140Z,74.88
2019-02-09T02:34:05.823Z,74.51
2019-02-09T02:35:06.509Z,74.98
2019-02-09T02:36:07.307Z,76.12
2019-02-09T02:37:08.437Z,75.17
2019-02-09T02:38:09.685Z,75.26
2019-02-09T02:39:10.372Z,75.45
2019-02-09T02:40:10.789Z,75.26
2019-02-09T02:41:11.875Z,75.36
2019-02-09T02:42:13.016Z,75.45
2019-02-09T02:43:13.149Z,75.84
2019-02-09T02:44:14.401Z,77.06
2019-02-09T02:45:15.369Z,76.5
2019-02-09T02:46:16.062Z,75.93
2019-02-09T02:47:17.306Z,77.16
2019-02-09T02:48:17.991Z,77.73
2019-02-09T02:49:18.675Z,77.35
2019-02-09T02:50:19.389Z,77.64
2019-02-09T02:51:19.930Z,77.83
2019-02-09T02:52:20.390Z,77.64
2019-02-09T02:53:21.361Z,78.49
2019-02-09T02:54:22.322Z,78.39
2019-02-09T02:55:23.563Z,78.3
2019-02-09T02:56:24.668Z,78.77
2019-02-09T02:57:25.648Z,80.67
2019-02-09T02:58:25.902Z,80.57
2019-02-09T02:59:27.038Z,79.44
2019-02-09T03:00:34.186Z,80
2019-02-09T03:00:39.756Z,80.1
2019-02-09T03:01:41.126Z,79.53
2019-02-09T03:02:42.127Z,79.25
2019-02-09T03:03:42.368Z,79.15
2019-02-09T03:04:43.497Z,78.77
2019-02-09T03:05:45.458Z,77.83
2019-02-09T03:06:45.698Z,77.83
2019-02-09T03:07:46.856Z,78.2
2019-02-09T03:08:47.998Z,79.72
2019-02-09T03:09:48.752Z,79.82
2019-02-09T03:10:49.440Z,79.15
2019-02-09T03:11:50.667Z,77.35
2019-02-09T03:12:51.350Z,76.87
2019-02-09T03:13:52.612Z,77.92
2019-02-09T03:14:52.577Z,76.21
2019-02-09T03:15:53.538Z,76.4
2019-02-09T03:16:53.983Z,74.6
2019-02-09T03:17:54.676Z,72.71
2019-02-09T03:18:54.936Z,72.61
2019-02-09T03:19:56.467Z,73.46
2019-02-09T03:20:56.882Z,73.37
2019-02-09T03:21:58.012Z,72.71
2019-02-09T03:22:58.979Z,72.14
2019-02-09T03:23:59.948Z,72.04
2019-02-09T03:25:00.501Z,72.14
2019-02-09T03:26:01.194Z,72.52
2019-02-09T03:27:01.879Z,72.99
2019-02-09T03:28:03.563Z,73.46
2019-02-09T03:29:04.256Z,74.98
2019-02-09T03:30:04.946Z,75.36
2019-02-09T03:31:06.216Z,74.32
2019-02-09T03:32:08.687Z,75.07
2019-02-09T03:32:19.126Z,74.79
2019-02-09T03:33:20.050Z,74.13
2019-02-09T03:34:20.893Z,73.56
2019-02-09T03:35:21.155Z,73.46
2019-02-09T03:36:21.871Z,73.65
2019-02-09T03:37:22.279Z,73.27
2019-02-09T03:38:22.688Z,72.52
2019-02-09T03:39:23.104Z,72.61
2019-02-09T03:40:24.108Z,71.85
2019-02-09T03:41:24.521Z,72.42
2019-02-09T03:42:25.486Z,71.66
2019-02-09T03:43:26.245Z,71
2019-02-09T03:44:27.208Z,71.19
2019-02-09T03:45:28.478Z,70.72
2019-02-09T03:46:29.064Z,70.9
2019-02-09T03:47:29.471Z,70.34
2019-02-09T03:48:29.883Z,69.67
2019-02-09T03:49:31.295Z,70.53
2019-02-09T03:50:31.988Z,69.8
2019-02-09T03:51:32.754Z,70.56
2019-02-09T03:52:33.718Z,69.61
2019-02-09T03:53:34.814Z,68.82
2019-02-09T03:54:35.535Z,68.35
2019-02-09T03:55:36.221Z,68.66
2019-02-09T03:56:37.190Z,68.95
2019-02-09T03:57:38.436Z,68.73
2019-02-09T03:58:39.142Z,68.29
2019-02-09T03:59:40.106Z,66.48
2019-02-09T04:00:41.098Z,66.1
2019-02-09T04:01:42.074Z,66.58
2019-02-09T04:02:42.046Z,66.58
2019-02-09T04:03:43.194Z,66.96
2019-02-09T04:04:43.881Z,66.96
2019-02-09T04:05:45.206Z,65.91
2019-02-09T04:06:45.757Z,65.44
2019-02-09T04:07:46.731Z,65.44
2019-02-09T04:08:47.976Z,65.53
2019-02-09T04:09:48.975Z,65.44
2019-02-09T04:10:49.386Z,64.87
2019-02-09T04:11:50.070Z,65.44
2019-02-09T04:12:51.311Z,65.06
2019-02-09T04:13:51.567Z,65.34
2019-02-09T04:14:52.814Z,65.63
2019-02-09T04:15:53.056Z,64.97
2019-02-09T04:16:54.032Z,64.59
2019-02-09T04:17:54.782Z,64.4
2019-02-09T04:18:54.777Z,64.68
2019-02-09T04:19:55.740Z,65.53
2019-02-09T04:20:57.160Z,65.44
2019-02-09T04:21:57.848Z,64.87
2019-02-09T04:22:58.807Z,64.97
2019-02-09T04:24:00.217Z,64.59
2019-02-09T04:25:01.370Z,64.78
2019-02-09T04:26:02.624Z,65.91
2019-02-09T04:27:02.864Z,66.96
2019-02-09T04:28:03.562Z,67.33
2019-02-09T04:29:03.980Z,67.24
2019-02-09T04:30:04.507Z,68
2019-02-09T04:31:07.845Z,67.81
2019-02-09T04:32:07.545Z,67.71
2019-02-09T04:33:08.525Z,68.35
2019-02-09T04:34:09.209Z,68.19
2019-02-09T04:35:09.669Z,68.82
2019-02-09T04:36:10.634Z,66.83
2019-02-09T04:37:10.601Z,67.02
2019-02-09T04:38:12.132Z,66.77
2019-02-09T04:39:12.652Z,66.77
2019-02-09T04:40:12.624Z,66.39
2019-02-09T04:41:13.310Z,66.01
2019-02-09T04:42:13.828Z,66.2
2019-02-09T04:43:15.240Z,65.82
2019-02-09T04:44:15.925Z,65.44
2019-02-09T04:45:16.893Z,65.82
2019-02-09T04:46:17.149Z,66.01
2019-02-09T04:47:17.848Z,65.44
2019-02-09T04:48:18.538Z,65.44
2019-02-09T04:49:19.223Z,65.34
2019-02-09T04:50:19.640Z,65.72
2019-02-09T04:51:20.654Z,64.87
2019-02-09T04:52:21.341Z,65.34
2019-02-09T04:53:22.052Z,65.44
2019-02-09T04:54:22.862Z,65.44
2019-02-09T04:55:24.120Z,65.25
2019-02-09T04:56:24.389Z,64.68
2019-02-09T04:57:25.116Z,64.59
2019-02-09T04:58:38.113Z,64.87
2019-02-09T04:59:39.134Z,65.06
2019-02-09T05:00:39.551Z,64.49
2019-02-09T05:01:40.525Z,64.59
2019-02-09T05:02:41.676Z,64.4
2019-02-09T05:03:42.647Z,64.3
2019-02-09T05:04:43.342Z,63.82
2019-02-09T05:05:43.485Z,64.11
2019-02-09T05:06:44.208Z,64.49
2019-02-09T05:07:45.189Z,64.49
2019-02-09T05:08:45.937Z,64.78
2019-02-09T05:09:46.616Z,64.87
2019-02-09T05:10:47.183Z,65.25
2019-02-09T05:11:47.623Z,65.41
2019-02-09T05:12:48.043Z,65.31
2019-02-09T05:13:49.292Z,65.03
2019-02-09T05:14:50.107Z,65.31
2019-02-09T05:15:51.089Z,65.31
2019-02-09T05:16:51.348Z,66.74
2019-02-09T05:17:52.389Z,66.01
2019-02-09T05:18:53.480Z,65.22
2019-02-09T05:19:54.351Z,65.63
2019-02-09T05:20:54.782Z,65.34
2019-02-09T05:21:55.478Z,65.63
2019-02-09T05:22:56.188Z,65.82
2019-02-09T05:23:56.892Z,65.53
2019-02-09T05:24:58.320Z,65.63
2019-02-09T05:25:58.739Z,65.44
2019-02-09T05:26:59.010Z,66.2
2019-02-09T05:27:59.755Z,65.44
2019-02-09T05:29:00.180Z,65.53
2019-02-09T05:30:00.651Z,64.49
2019-02-09T05:31:01.176Z,65.16
2019-02-09T05:32:01.870Z,64.87
2019-02-09T05:33:02.695Z,64.87
2019-02-09T05:34:03.146Z,64.87
2019-02-09T05:35:04.686Z,64.87
2019-02-09T05:36:05.378Z,64.59
2019-02-09T05:37:06.520Z,64.59
2019-02-09T05:38:07.496Z,64.4
2019-02-09T05:39:07.756Z,65.91
2019-02-09T05:40:08.793Z,64.49
2019-02-09T05:41:10.045Z,64.68
2019-02-09T05:42:11.054Z,64.59
2019-02-09T05:43:11.776Z,64.4
2019-02-09T05:44:12.585Z,64.97
2019-02-09T05:45:12.724Z,66.01
2019-02-09T05:46:13.698Z,65
2019-02-09T05:47:14.839Z,64.59
2019-02-09T05:48:16.091Z,65.53
2019-02-09T05:49:15.792Z,63.64
2019-02-09T05:50:16.759Z,61.58
2019-02-09T05:51:17.468Z,61.11
2019-02-09T05:52:17.458Z,60.53
2019-02-09T05:53:18.434Z,60.92
2019-02-09T05:54:20.131Z,61.01
2019-02-09T05:55:20.551Z,61.58
2019-02-09T05:56:21.580Z,61.01
2019-02-09T05:57:22.555Z,61.96
2019-02-09T05:58:23.263Z,64.52
2019-02-09T05:59:24.261Z,66.42
2019-02-09T06:00:24.366Z,65.56
2019-02-09T06:01:36.832Z,64.14
2019-02-09T06:02:37.952Z,63.82
2019-02-09T06:03:38.656Z,64.24
2019-02-09T06:04:39.634Z,62.62
2019-02-09T06:05:40.334Z,62.24
2019-02-09T06:06:41.057Z,62.15
2019-02-09T06:07:42.320Z,62.43
2019-02-09T06:08:43.041Z,62.34
2019-02-09T06:09:43.737Z,62.34
2019-02-09T06:10:43.444Z,62.43
2019-02-09T06:11:44.430Z,62.72
2019-02-09T06:12:45.569Z,62.53
2019-02-09T06:13:46.829Z,62.34
2019-02-09T06:14:47.574Z,62.34
2019-02-09T06:15:48.548Z,62.34
2019-02-09T06:16:48.256Z,62.34
2019-02-09T06:17:49.398Z,61.68
2019-02-09T06:18:50.116Z,61.96
2019-02-09T06:19:51.092Z,62.34
2019-02-09T06:20:51.785Z,62.34
2019-02-09T06:21:52.480Z,62.43
2019-02-09T06:22:52.809Z,64.52
2019-02-09T06:23:53.789Z,63.95
2019-02-09T06:24:54.047Z,64.14
2019-02-09T06:25:54.760Z,64.9
2019-02-09T06:26:55.515Z,63.95
2019-02-09T06:27:56.492Z,63.29
2019-02-09T06:28:57.552Z,63.67
2019-02-09T06:29:58.589Z,63.29
2019-02-09T06:30:59.640Z,63.89
2019-02-09T06:32:00.076Z,64.52
2019-02-09T06:33:01.272Z,65.56
2019-02-09T06:34:01.801Z,66.04
2019-02-09T06:35:02.219Z,65.85
2019-02-09T06:36:03.030Z,66.42
2019-02-09T06:37:03.569Z,66.61
2019-02-09T06:38:03.717Z,67.75
2019-02-09T06:39:04.463Z,67.85
2019-02-09T06:40:05.215Z,67.75
2019-02-09T06:41:05.761Z,68.51
2019-02-09T06:42:06.735Z,69.27
2019-02-09T06:43:07.130Z,68.98
2019-02-09T06:44:07.825Z,69.36
2019-02-09T06:45:08.968Z,69.46
2019-02-09T06:46:10.110Z,69.84
2019-02-09T06:47:10.805Z,69.65
2019-02-09T06:48:11.502Z,69.55
2019-02-09T06:49:12.197Z,69.17
2019-02-09T06:50:12.658Z,68.89
2019-02-09T06:51:13.359Z,68.41
2019-02-09T06:52:14.787Z,68.7
2019-02-09T06:53:15.173Z,67.08
2019-02-09T06:54:15.590Z,66.61
2019-02-09T06:55:15.852Z,65.37
2019-02-09T06:56:16.555Z,65.37
2019-02-09T06:57:17.974Z,65.85
2019-02-09T06:58:18.447Z,65.95
2019-02-09T06:59:19.187Z,66.04
2019-02-09T07:00:19.162Z,66.46
2019-02-09T07:01:20.696Z,66.33
2019-02-09T07:02:21.118Z,66.46
2019-02-09T07:03:21.761Z,65.75
2019-02-09T07:04:22.180Z,66.04
2019-02-09T07:05:22.606Z,65.88
2019-02-09T07:06:23.303Z,66.17
2019-02-09T07:07:23.999Z,66.46
2019-02-09T07:08:24.420Z,66.64
2019-02-09T07:09:24.844Z,66.93
2019-02-09T07:10:25.270Z,66.55
2019-02-09T07:11:25.968Z,66.36
2019-02-09T07:12:27.388Z,65.98
2019-02-09T07:13:27.815Z,65.31
2019-02-09T07:14:28.242Z,65.79
2019-02-09T07:15:28.670Z,64.84
2019-02-09T07:16:29.098Z,64.94
2019-02-09T07:17:29.351Z,64.65
2019-02-09T07:18:30.082Z,64.84
2019-02-09T07:19:31.221Z,65.12
2019-02-09T07:20:32.470Z,64.84
2019-02-09T07:21:32.164Z,64.08
2019-02-09T07:22:33.585Z,64.37
2019-02-09T07:23:34.167Z,64.17
2019-02-09T07:24:35.581Z,64.65
2019-02-09T07:25:36.570Z,64.65
2019-02-09T07:26:36.820Z,64.37
2019-02-09T07:27:37.518Z,65.69
2019-02-09T07:28:37.938Z,66.64
2019-02-09T07:29:38.916Z,65.88
2019-02-09T07:30:39.891Z,65.88
2019-02-09T07:31:40.597Z,67.4
2019-02-09T07:32:41.299Z,67.12
2019-02-09T07:33:42.153Z,68.73
2019-02-09T07:34:42.591Z,68.44
2019-02-09T07:35:44.914Z,68.54
2019-02-09T07:36:44.890Z,68.83
2019-02-09T07:37:45.591Z,69.3
2019-02-09T07:38:46.011Z,69.02
2019-02-09T07:39:46.989Z,70.15
2019-02-09T07:40:47.261Z,70.44
2019-02-09T07:41:48.237Z,71.3
2019-02-09T07:42:48.662Z,71.58
2019-02-09T07:43:50.053Z,71.48
2019-02-09T07:44:50.750Z,72.44
2019-02-09T07:45:52.456Z,73.38
2019-02-09T07:46:52.727Z,74.52
2019-02-09T07:47:53.145Z,75.38
2019-02-09T07:48:53.845Z,75.67
2019-02-09T07:49:54.547Z,76.99
2019-02-09T07:50:55.245Z,77.56
2019-02-09T07:51:55.668Z,77.18
2019-02-09T07:52:56.090Z,76.32
2019-02-09T07:53:56.926Z,77.09
2019-02-09T07:54:58.073Z,77.75
2019-02-09T07:55:59.216Z,77.84
2019-02-09T07:56:59.473Z,78.8
2019-02-09T07:58:00.177Z,79.94
2019-02-09T07:59:00.325Z,80.51
2019-02-09T08:00:01.756Z,82.12
2019-02-09T08:01:03.006Z,82.59
2019-02-09T08:02:06.113Z,84.4
2019-02-09T08:03:06.814Z,84.59
2019-02-09T08:04:07.960Z,86.49
2019-02-09T08:05:08.108Z,85.63
2019-02-09T08:06:08.529Z,86.2
2019-02-09T08:07:09.513Z,87.05
2019-02-09T08:08:10.215Z,87.91
2019-02-09T08:09:11.194Z,89.05
2019-02-09T08:10:11.344Z,89.43
2019-02-09T08:11:12.055Z,88.86
2019-02-09T08:12:12.766Z,82.03
2019-02-09T08:13:14.020Z,75.85
2019-02-09T08:14:15.435Z,75.47
2019-02-09T08:15:16.407Z,76.42
2019-02-09T08:16:17.386Z,75.47
2019-02-09T08:17:18.371Z,75.57
2019-02-09T08:18:18.795Z,76.99
2019-02-09T08:19:19.943Z,76.71
2019-02-09T08:20:20.364Z,77.05
2019-02-09T08:21:21.061Z,78.85
2019-02-09T08:22:22.206Z,80.08
2019-02-09T08:23:22.628Z,81.7
2019-02-09T08:24:23.014Z,81.79
2019-02-09T08:25:23.440Z,82.27
2019-02-09T08:26:24.422Z,82.08
2019-02-09T08:27:24.846Z,81.23
2019-02-09T08:28:25.989Z,81.98
2019-02-09T08:29:26.692Z,81.23
2019-02-09T08:30:26.946Z,80.08
2019-02-09T08:31:27.201Z,79.99
2019-02-09T08:32:27.619Z,79.61
2019-02-09T08:33:28.601Z,79.9
2019-02-09T08:34:28.886Z,79.23
2019-02-09T08:35:29.585Z,78
2019-02-09T08:36:30.010Z,77.33
2019-02-09T08:37:31.261Z,77.24
2019-02-09T08:38:32.524Z,78.09
2019-02-09T08:39:32.871Z,78.66
2019-02-09T08:40:33.298Z,79.8
2019-02-09T08:41:34.279Z,80.37
2019-02-09T08:42:34.427Z,81.93
2019-02-09T08:43:35.855Z,85.35
2019-02-09T08:44:36.729Z,84.78
2019-02-09T08:45:37.433Z,82.5
2019-02-09T08:46:38.432Z,80.98
2019-02-09T08:47:39.135Z,78.89
2019-02-09T08:48:39.276Z,77.94
2019-02-09T08:49:40.700Z,75.95
2019-02-09T08:50:41.677Z,74.52
2019-02-09T08:51:42.380Z,75.19
2019-02-09T08:52:43.524Z,75
2019-02-09T08:53:44.669Z,74.9
2019-02-09T08:54:46.093Z,74.33
2019-02-09T08:55:46.792Z,73.38
2019-02-09T08:56:47.642Z,73.76
2019-02-09T08:57:48.212Z,75.09
2019-02-09T08:58:49.208Z,75.47
2019-02-09T08:59:49.394Z,78.32
2019-02-09T09:00:50.539Z,78.61
2019-02-09T09:01:51.971Z,77.37
2019-02-09T09:02:53.229Z,77.94
2019-02-09T09:03:53.021Z,79.36
2019-02-09T09:04:54.078Z,76.8
2019-02-09T09:05:54.781Z,76.32
2019-02-09T09:06:55.206Z,73.76
2019-02-09T09:07:56.465Z,71.77
2019-02-09T09:08:57.169Z,71.81
2019-02-09T09:09:57.430Z,71.62
2019-02-09T09:10:57.894Z,71.43
2019-02-09T09:11:58.813Z,70.76
2019-02-09T09:12:59.517Z,70.1
2019-02-09T09:14:03.200Z,69.81
2019-02-09T09:14:14.436Z,69.81
2019-02-09T09:14:24.273Z,69.53
2019-02-09T09:15:23.598Z,70.67
2019-02-09T09:16:24.021Z,66.49
2019-02-09T09:17:24.723Z,66.58
2019-02-09T09:18:25.152Z,66.3
2019-02-09T09:19:25.852Z,65.82
2019-02-09T09:20:26.554Z,66.67
2019-02-09T09:21:27.032Z,65.92
2019-02-09T09:22:28.057Z,66.11
2019-02-09T09:23:28.765Z,65.63
2019-02-09T09:24:28.915Z,65.63
2019-02-09T09:25:30.044Z,66.46
2019-02-09T09:26:30.300Z,67.31
2019-02-09T09:27:31.015Z,67.69
2019-02-09T09:28:32.160Z,68.16
2019-02-09T09:29:33.143Z,68.54
2019-02-09T09:30:34.566Z,68.92
2019-02-09T09:31:34.825Z,70.54
2019-02-09T09:32:35.248Z,71.11
2019-02-09T09:33:35.672Z,72.06
2019-02-09T09:34:36.654Z,72.34
2019-02-09T09:35:37.076Z,71.3
2019-02-09T09:36:37.638Z,72.06
2019-02-09T09:37:38.072Z,71.11
2019-02-09T09:38:38.785Z,71.96
2019-02-09T09:39:39.796Z,72.81
2019-02-09T09:40:39.948Z,72.85
2019-02-09T09:41:40.655Z,72.95
2019-02-09T09:42:42.079Z,72.85
2019-02-09T09:43:42.781Z,73.8
2019-02-09T09:44:43.226Z,75.99
2019-02-09T09:45:43.805Z,74.08
2019-02-09T09:46:44.230Z,73.38
2019-02-09T09:47:45.667Z,73
2019-02-09T09:48:46.138Z,73.96
2019-02-09T09:49:46.846Z,74.15
2019-02-09T09:50:47.829Z,75.09
2019-02-09T09:51:48.805Z,76.52
2019-02-09T09:52:49.788Z,78.32
2019-02-09T09:53:50.224Z,79.84
2019-02-09T09:54:51.203Z,78.51
2019-02-09T09:55:52.374Z,77.84
2019-02-09T09:56:53.106Z,79.36
2019-02-09T09:57:53.647Z,80.79
2019-02-09T09:58:54.374Z,80.41
2019-02-09T09:59:55.082Z,81.21
2019-02-09T10:00:56.066Z,84.53
2019-02-09T10:01:56.485Z,93.56
2019-02-09T10:02:56.747Z,90.8
2019-02-09T10:03:57.174Z,90.61
2019-02-09T10:04:58.327Z,90.99
2019-02-09T10:05:58.887Z,86.05
2019-02-09T10:06:59.308Z,87.38
2019-02-09T10:07:59.778Z,86.72
2019-02-09T10:09:00.052Z,86.34
2019-02-09T10:10:01.109Z,86.53
2019-02-09T10:11:01.540Z,82.92
2019-02-09T10:12:01.967Z,80.07
2019-02-09T10:13:02.670Z,77.98
2019-02-09T10:14:09.863Z,79.41
2019-02-09T10:14:15.471Z,79.03
2019-02-09T10:15:16.316Z,75.84
2019-02-09T10:16:16.464Z,75.93
2019-02-09T10:17:16.890Z,76.56
2019-02-09T10:18:18.036Z,76.18
2019-02-09T10:19:18.740Z,74.27
2019-02-09T10:20:19.464Z,73.27
2019-02-09T10:21:20.615Z,74.98
2019-02-09T10:22:21.595Z,75.79
2019-02-09T10:23:23.024Z,75.36
2019-02-09T10:24:24.169Z,75.93
2019-02-09T10:25:25.054Z,77.83
2019-02-09T10:26:26.027Z,79.92
2019-02-09T10:27:27.488Z,80.11
2019-02-09T10:28:27.915Z,78.4
2019-02-09T10:29:28.339Z,79.83
2019-02-09T10:30:29.046Z,82.1
2019-02-09T10:31:29.306Z,81.06
2019-02-09T10:32:29.450Z,85.15
2019-02-09T10:33:30.153Z,84.1
2019-02-09T10:34:30.411Z,83.44
2019-02-09T10:35:31.527Z,82.49
2019-02-09T10:36:32.510Z,82.1
2019-02-09T10:37:33.497Z,85.81
2019-02-09T10:38:33.923Z,91.33
2019-02-09T10:39:34.625Z,88.38
2019-02-09T10:40:35.100Z,84.58
2019-02-09T10:41:35.806Z,83.62
2019-02-09T10:42:37.154Z,82.77
2019-02-09T10:43:37.874Z,79.92
2019-02-09T10:44:37.903Z,79.11
2019-02-09T10:45:38.520Z,78.06
2019-02-09T10:46:39.222Z,77.87
2019-02-09T10:47:39.400Z,73.63
2019-02-09T10:48:40.102Z,72.86
2019-02-09T10:49:41.084Z,72.77
2019-02-09T10:50:41.232Z,72.67
2019-02-09T10:51:41.938Z,70.2
2019-02-09T10:52:42.083Z,69.73
2019-02-09T10:53:43.235Z,69
2019-02-09T10:54:43.658Z,69.95
2019-02-09T10:55:44.496Z,68.15
2019-02-09T10:56:45.198Z,67.57
2019-02-09T10:57:46.353Z,66.81
2019-02-09T10:58:46.781Z,66.81
2019-02-09T10:59:47.209Z,67.57
2019-02-09T11:00:47.914Z,69.19
2019-02-09T11:01:47.907Z,69.79
2019-02-09T11:02:53.597Z,67.99
2019-02-09T11:03:00.677Z,67.7
2019-02-09T11:04:01.875Z,67.03
2019-02-09T11:05:02.592Z,66.18
2019-02-09T11:06:02.592Z,64.69
2019-02-09T11:07:03.301Z,65.16
2019-02-09T11:08:07.690Z,65.1
2019-02-09T11:08:16.518Z,65.1
2019-02-09T11:09:17.844Z,65.2
2019-02-09T11:10:18.002Z,64.81
2019-02-09T11:11:19.000Z,63.67
2019-02-09T11:12:19.428Z,63.29
2019-02-09T11:13:20.859Z,62.34
2019-02-09T11:14:21.289Z,61.29
2019-02-09T11:15:21.999Z,61.48
2019-02-09T11:16:22.707Z,61.1
2019-02-09T11:17:23.138Z,60.43
2019-02-09T11:18:23.570Z,62.15
2019-02-09T11:19:23.970Z,62.24
2019-02-09T11:20:24.676Z,61.48
2019-02-09T11:21:25.107Z,60.43
2019-02-09T11:22:25.538Z,61.38
2019-02-09T11:23:26.246Z,62.46
2019-02-09T11:24:27.685Z,61.8
2019-02-09T11:25:28.670Z,62.34
2019-02-09T11:26:29.114Z,63.39
2019-02-09T11:27:29.928Z,63.92
2019-02-09T11:28:30.912Z,64.4
2019-02-09T11:29:31.598Z,64.78
2019-02-09T11:30:32.584Z,64.72
2019-02-09T11:31:33.017Z,67.2
2019-02-09T11:32:34.098Z,68.63
2019-02-09T11:33:34.319Z,70.15
2019-02-09T11:34:36.306Z,69.87
2019-02-09T11:35:36.497Z,70.25
2019-02-09T11:36:37.554Z,69.62
2019-02-09T11:37:38.276Z,69.14
2019-02-09T11:38:38.709Z,69.81
2019-02-09T11:39:39.283Z,69.62
2019-02-09T11:40:39.711Z,71.14
2019-02-09T11:41:40.864Z,71.52
2019-02-09T11:42:41.849Z,72.53
2019-02-09T11:43:42.276Z,72.06
2019-02-09T11:44:43.430Z,73.68
2019-02-09T11:45:44.138Z,75.4
2019-02-09T11:46:45.681Z,80.79
2019-02-09T11:47:45.831Z,78.31
2019-02-09T11:48:46.261Z,76.79
2019-02-09T11:49:47.396Z,79.64
2019-02-09T11:50:48.539Z,80.5
2019-02-09T11:51:48.969Z,83.07
2019-02-09T11:52:50.105Z,86.32
2019-02-09T11:53:51.455Z,89.46
2019-02-09T11:54:51.371Z,95.08
2019-02-09T11:55:52.123Z,97.36
2019-02-09T11:56:52.837Z,98.84
2019-02-09T11:57:53.554Z,99.99
2019-02-09T11:58:54.549Z,99.99
2019-02-09T11:59:55.699Z,99.99
2019-02-09T12:00:56.963Z,99.99
2019-02-09T12:01:57.674Z,99.99
2019-02-09T12:03:18.301Z,99.99
2019-02-09T12:03:24.655Z,99.99
2019-02-09T12:04:23.815Z,99.99
2019-02-09T12:05:25.190Z,99.99
2019-02-09T12:06:25.829Z,99.99
2019-02-09T12:07:26.833Z,99.99
2019-02-09T12:08:27.550Z,99.99
2019-02-09T12:09:27.817Z,99.99
2019-02-09T12:10:29.256Z,99.99
2019-02-09T12:11:29.961Z,99.99
2019-02-09T12:12:33.192Z,99.99
2019-02-09T12:13:31.901Z,99.99
2019-02-09T12:14:32.750Z,99.99
2019-02-09T12:15:33.176Z,99.99
2019-02-09T12:16:33.891Z,99.99
2019-02-09T12:17:34.595Z,99.99
2019-02-09T12:18:35.859Z,99.99
2019-02-09T12:19:36.887Z,99.99
2019-02-09T12:20:38.602Z,99.99
2019-02-09T12:21:39.310Z,99.99
2019-02-09T12:22:40.463Z,99.99
2019-02-09T12:23:41.918Z,99.99
2019-02-09T12:24:42.797Z,99.99
2019-02-09T12:25:43.265Z,99.99
2019-02-09T12:26:44.696Z,99.99
2019-02-09T12:27:46.126Z,99.99
2019-02-09T12:28:46.943Z,99.99
2019-02-09T12:29:47.107Z,99.99
2019-02-09T12:30:47.822Z,99.99
2019-02-09T12:31:48.551Z,99.99
2019-02-09T12:32:49.093Z,99.99
2019-02-09T12:33:49.358Z,99.99
2019-02-09T12:34:49.683Z,99.99
2019-02-09T12:35:50.960Z,99.99
2019-02-09T12:36:51.388Z,99.99
2019-02-09T12:37:52.403Z,99.99
2019-02-09T12:38:53.131Z,99.99
2019-02-09T12:39:53.559Z,99.99
2019-02-09T12:40:54.272Z,99.99
2019-02-09T12:41:54.697Z,99.99
2019-02-09T12:42:58.008Z,99.99
2019-02-09T12:43:57.437Z,99.99
2019-02-09T12:44:58.290Z,99.99
2019-02-09T12:45:59.398Z,99.99
2019-02-09T12:46:59.661Z,99.99
2019-02-09T12:48:00.431Z,99.99
2019-02-09T12:49:01.150Z,99.99
2019-02-09T12:50:02.133Z,99.99
2019-02-09T12:51:02.692Z,99.99
2019-02-09T12:52:03.407Z,99.99
2019-02-09T12:53:04.108Z,99.99
2019-02-09T12:54:04.260Z,99.99
2019-02-09T12:55:05.111Z,99.99
2019-02-09T12:56:05.538Z,99.99
2019-02-09T12:57:05.970Z,99.99
2019-02-09T12:58:06.671Z,99.99